Time;durP1;ratioP1;P1;durP2;ratioP2;P2;SDS_P1;SDS_P2;PMS_P1;PMS_P2;Temp;Humidity;BMP_temperature;BMP_pressure;BME280_temperature;BME280_humidity;BME280_pressure;Samples;Min_cycle;Max_cycle;Signal;HPM_P1;HPM_P2
2021/07/02 00:01:10;;;;;;;15.33;7.80;;;;;;;10.24;100.00;93977.00;5134541;27;20204;-78
2021/07/02 00:03:38;;;;;;;20.23;6.97;;;;;;;10.14;100.00;93985.16;5134526;27;20605;-78
2021/07/02 00:06:06;;;;;;;13.70;6.67;;;;;;;10.05;100.00;93985.50;5134110;27;20235;-79
2021/07/02 00:08:32;;;;;;;17.27;7.53;;;;;;;10.00;100.00;93979.03;5134630;27;20208;-78
2021/07/02 00:10:59;;;;;;;17.07;7.73;;;;;;;9.98;100.00;93977.63;5134164;27;20735;-78
2021/07/02 00:13:25;;;;;;;16.87;7.03;;;;;;;9.87;100.00;93973.75;5134249;27;20674;-78
2021/07/02 00:15:52;;;;;;;17.87;7.63;;;;;;;9.78;100.00;93977.50;5134352;27;20197;-78
2021/07/02 00:18:18;;;;;;;19.77;6.90;;;;;;;9.71;100.00;93974.03;5134071;27;20196;-77
2021/07/02 00:20:46;;;;;;;19.30;9.75;;;;;;;9.71;100.00;93972.25;5133403;27;20425;-76
2021/07/02 00:23:13;;;;;;;19.07;7.77;;;;;;;9.72;100.00;93978.25;5134305;27;20245;-77
2021/07/02 00:25:39;;;;;;;21.37;7.83;;;;;;;9.67;100.00;93971.00;5134145;27;20221;-77
2021/07/02 00:28:06;;;;;;;19.67;8.47;;;;;;;9.68;100.00;93969.22;5133820;27;20232;-77
2021/07/02 00:30:32;;;;;;;19.30;8.43;;;;;;;9.69;100.00;93968.22;5134203;27;20207;-77
2021/07/02 00:32:59;;;;;;;27.17;8.87;;;;;;;9.67;100.00;93965.78;5134080;27;20245;-77
2021/07/02 00:35:26;;;;;;;20.63;8.40;;;;;;;9.69;100.00;93957.78;5125944;27;20197;-77
2021/07/02 00:37:54;;;;;;;22.33;9.17;;;;;;;9.69;100.00;93963.00;5113634;28;20205;-78
2021/07/02 00:40:20;;;;;;;28.80;9.37;;;;;;;9.68;100.00;93961.41;5113612;28;20238;-78
2021/07/02 00:42:47;;;;;;;23.43;10.23;;;;;;;9.69;100.00;93955.19;5118737;27;20196;-79
2021/07/02 00:45:13;;;;;;;24.40;8.93;;;;;;;9.63;100.00;93957.53;5113132;27;20533;-77
2021/07/02 00:47:40;;;;;;;26.37;8.93;;;;;;;9.61;100.00;93958.75;5114999;28;20197;-78
2021/07/02 00:50:08;;;;;;;23.77;9.20;;;;;;;9.66;100.00;93960.75;5120067;28;20197;-79
2021/07/02 00:52:34;;;;;;;20.50;8.93;;;;;;;9.65;100.00;93956.56;5120402;28;20242;-79
2021/07/02 00:55:03;;;;;;;22.87;9.00;;;;;;;9.65;100.00;93956.56;5120234;28;20201;-77
2021/07/02 00:57:32;;;;;;;19.77;7.83;;;;;;;9.63;100.00;93941.91;5119960;28;20656;-78
2021/07/02 00:59:59;;;;;;;22.37;9.30;;;;;;;9.65;100.00;93959.97;5119864;28;20674;-78
2021/07/02 01:02:28;;;;;;;19.27;8.60;;;;;;;9.69;100.00;93947.34;5120293;28;20208;-78
2021/07/02 01:04:54;;;;;;;26.00;10.83;;;;;;;9.73;100.00;93941.56;5118927;28;20434;-79
2021/07/02 01:07:24;;;;;;;17.30;8.47;;;;;;;9.77;100.00;93945.41;5120176;28;20237;-79
2021/07/02 01:09:50;;;;;;;25.50;9.40;;;;;;;9.80;100.00;93949.44;5120005;28;20219;-79
2021/07/02 01:12:18;;;;;;;21.27;8.70;;;;;;;9.83;100.00;93943.84;5119922;28;20250;-78
2021/07/02 01:14:45;;;;;;;23.13;9.10;;;;;;;9.77;100.00;93949.81;5119748;28;20204;-78
2021/07/02 01:17:11;;;;;;;25.97;9.13;;;;;;;9.75;100.00;93946.59;5120043;28;20624;-77
2021/07/02 01:19:45;;;;;;;20.23;7.93;;;;;;;9.73;100.00;93948.59;5119988;28;20219;-77
2021/07/02 01:22:16;;;;;;;28.27;9.37;;;;;;;9.74;100.00;93944.97;5119881;28;20660;-78
2021/07/02 01:24:43;;;;;;;26.27;9.30;;;;;;;9.76;100.00;93948.22;5119939;28;20205;-78
2021/07/02 01:27:11;;;;;;;22.80;9.93;;;;;;;9.77;100.00;93955.03;5119454;28;20232;-79
2021/07/02 01:29:38;;;;;;;23.23;9.10;;;;;;;9.78;100.00;93954.84;5119954;28;20223;-77
2021/07/02 01:32:05;;;;;;;23.63;8.73;;;;;;;9.78;100.00;93956.66;5119989;28;20198;-78
2021/07/02 01:34:32;;;;;;;25.73;9.97;;;;;;;9.76;100.00;93954.22;5119789;28;20200;-79
2021/07/02 01:36:59;;;;;;;22.20;8.83;;;;;;;9.75;100.00;93954.44;5119915;28;20197;-78
2021/07/02 01:39:27;;;;;;;20.57;8.83;;;;;;;9.77;100.00;93960.25;5119732;28;20241;-78
2021/07/02 01:41:54;;;;;;;24.23;9.27;;;;;;;9.79;100.00;93966.06;5119931;28;20590;-78
2021/07/02 01:44:20;;;;;;;26.17;9.33;;;;;;;9.79;100.00;93964.28;5119801;28;20193;-77
2021/07/02 01:46:48;;;;;;;22.83;8.60;;;;;;;9.81;100.00;93962.28;5119575;28;20231;-79
2021/07/02 01:49:15;;;;;;;25.23;9.20;;;;;;;9.77;100.00;93966.25;5119921;28;20197;-77
2021/07/02 01:51:41;;;;;;;19.00;8.77;;;;;;;9.66;100.00;93958.16;5119667;28;20197;-78
2021/07/02 01:54:08;;;;;;;24.03;9.40;;;;;;;9.53;100.00;93964.91;5119493;28;20204;-78
2021/07/02 01:56:36;;;;;;;19.33;8.07;;;;;;;9.47;100.00;93963.03;5119685;28;20223;-79
2021/07/02 01:59:03;;;;;;;21.13;8.33;;;;;;;9.41;100.00;93961.22;5117918;28;20224;-79
2021/07/02 02:01:30;;;;;;;19.77;8.60;;;;;;;9.30;100.00;93964.31;5116096;28;20205;-78
2021/07/02 02:03:56;;;;;;;24.33;9.43;;;;;;;9.33;100.00;93958.72;5116341;28;20201;-76
2021/07/02 02:06:23;;;;;;;21.70;8.70;;;;;;;9.26;100.00;93954.25;5116179;28;20233;-77
2021/07/02 02:08:49;;;;;;;22.27;8.60;;;;;;;9.15;100.00;93946.94;5116061;28;20194;-77
2021/07/02 02:11:16;;;;;;;25.00;9.20;;;;;;;9.19;100.00;93948.19;5116245;28;20254;-79
2021/07/02 02:13:44;;;;;;;20.07;9.07;;;;;;;9.12;100.00;93956.94;5126636;27;20197;-79
2021/07/02 02:16:10;;;;;;;19.80;8.37;;;;;;;9.19;100.00;93950.81;5136490;27;20686;-78
2021/07/02 02:18:36;;;;;;;20.53;9.07;;;;;;;8.99;100.00;93949.81;5136637;27;20201;-79
2021/07/02 02:21:03;;;;;;;25.00;9.50;;;;;;;9.01;100.00;93953.03;5136602;27;20208;-77
2021/07/02 02:23:30;;;;;;;22.80;9.00;;;;;;;8.95;100.00;93953.78;5136381;27;20209;-76
2021/07/02 02:25:56;;;;;;;25.87;9.23;;;;;;;8.97;100.00;93951.78;5136422;27;20224;-79
2021/07/02 02:28:22;;;;;;;22.03;8.87;;;;;;;8.98;100.00;93953.41;5136222;27;20232;-79
2021/07/02 02:30:50;;;;;;;27.60;9.67;;;;;;;9.00;100.00;93954.03;5136471;27;20204;-78
2021/07/02 02:33:17;;;;;;;29.47;10.50;;;;;;;9.05;100.00;93959.50;5136300;27;20204;-77
2021/07/02 02:35:43;;;;;;;25.70;9.77;;;;;;;8.93;100.00;93956.56;5136194;27;20197;-78
2021/07/02 02:38:10;;;;;;;25.23;9.27;;;;;;;8.91;100.00;93958.56;5136197;27;20230;-78
2021/07/02 02:40:36;;;;;;;24.83;9.40;;;;;;;8.86;100.00;93953.91;5136205;27;20196;-78
2021/07/02 02:43:03;;;;;;;23.20;9.90;;;;;;;8.89;100.00;93952.72;5136246;27;20288;-78
2021/07/02 02:45:30;;;;;;;23.40;9.07;;;;;;;8.81;100.00;93958.03;5136028;27;20193;-78
2021/07/02 02:47:57;;;;;;;26.17;9.77;;;;;;;8.74;100.00;93954.56;5135855;27;20235;-77
2021/07/02 02:50:24;;;;;;;30.63;9.73;;;;;;;8.77;100.00;93955.00;5136036;27;20208;-78
2021/07/02 02:52:50;;;;;;;29.90;9.77;;;;;;;8.75;100.00;93954.38;5136097;27;20204;-76
2021/07/02 02:55:17;;;;;;;31.23;10.73;;;;;;;8.84;100.00;93950.69;5136083;27;20208;-76
2021/07/02 02:57:43;;;;;;;30.70;9.93;;;;;;;8.83;100.00;93959.47;5135963;27;20200;-77
2021/07/02 03:00:12;;;;;;;28.57;9.90;;;;;;;8.81;100.00;93951.06;5135735;27;20200;-77
2021/07/02 03:02:39;;;;;;;26.00;9.70;;;;;;;8.87;100.00;93950.28;5135687;27;20200;-78
2021/07/02 03:05:08;;;;;;;27.90;10.20;;;;;;;8.95;100.00;93951.97;5135563;27;20201;-77
2021/07/02 03:07:34;;;;;;;28.27;10.37;;;;;;;8.96;100.00;93952.78;5135704;27;20228;-78
2021/07/02 03:10:00;;;;;;;30.70;10.13;;;;;;;8.92;100.00;93954.94;5135388;27;20201;-78
2021/07/02 03:12:27;;;;;;;38.70;11.33;;;;;;;8.97;100.00;93949.19;5135201;27;20208;-77
2021/07/02 03:14:54;;;;;;;35.57;10.47;;;;;;;8.95;100.00;93961.59;5135427;27;20208;-77
2021/07/02 03:17:21;;;;;;;30.27;10.93;;;;;;;8.94;100.00;93954.75;5135502;27;20265;-77
2021/07/02 03:19:48;;;;;;;35.03;11.53;;;;;;;9.01;100.00;93966.03;5135207;27;20204;-78
2021/07/02 03:22:16;;;;;;;37.30;11.23;;;;;;;8.97;100.00;93965.63;5135147;27;20199;-79
2021/07/02 03:24:42;;;;;;;28.43;9.93;;;;;;;8.97;100.00;93963.00;5135230;27;20200;-78
2021/07/02 03:27:09;;;;;;;26.97;9.93;;;;;;;8.93;100.00;93963.59;5134987;27;20235;-78
2021/07/02 03:29:36;;;;;;;25.27;9.13;;;;;;;8.83;100.00;93969.88;5135210;27;20205;-77
2021/07/02 03:32:03;;;;;;;23.37;8.93;;;;;;;8.79;100.00;93973.88;5135052;27;20215;-78
2021/07/02 03:34:29;;;;;;;28.67;10.13;;;;;;;8.85;100.00;93972.31;5135396;27;20196;-77
2021/07/02 03:36:56;;;;;;;31.83;9.63;;;;;;;8.88;100.00;93966.75;5134876;27;20201;-79
2021/07/02 03:39:23;;;;;;;25.13;9.47;;;;;;;8.84;100.00;93974.13;5134946;27;20658;-77
2021/07/02 03:41:50;;;;;;;27.37;9.60;;;;;;;8.89;100.00;93973.53;5134937;27;20193;-78
2021/07/02 03:44:16;;;;;;;34.97;10.57;;;;;;;8.98;100.00;93971.66;5134838;27;20211;-77
2021/07/02 03:46:43;;;;;;;26.83;9.47;;;;;;;8.94;100.00;93986.00;5134848;27;20281;-77
2021/07/02 03:49:09;;;;;;;23.10;10.27;;;;;;;8.95;100.00;93977.22;5134830;27;20232;-77
2021/07/02 03:51:36;;;;;;;25.27;9.73;;;;;;;8.92;100.00;93982.78;5134850;27;20197;-78
2021/07/02 03:54:02;;;;;;;26.27;10.07;;;;;;;8.97;100.00;93980.44;5134758;27;20226;-78
2021/07/02 03:56:30;;;;;;;27.67;9.73;;;;;;;8.94;100.00;93980.81;5134608;27;20208;-78
2021/07/02 03:58:57;;;;;;;22.13;9.67;;;;;;;8.87;100.00;93978.94;5134560;27;20197;-77
2021/07/02 04:01:23;;;;;;;25.43;9.33;;;;;;;8.86;100.00;93977.34;5134348;27;20666;-80
2021/07/02 04:03:50;;;;;;;18.43;8.40;;;;;;;8.87;100.00;93983.34;5134340;27;20654;-79
2021/07/02 04:06:16;;;;;;;26.30;9.23;;;;;;;8.83;100.00;93988.13;5134372;27;20246;-78
2021/07/02 04:08:43;;;;;;;23.37;9.00;;;;;;;8.81;100.00;93971.88;5134538;27;20204;-79
2021/07/02 04:11:09;;;;;;;24.67;10.47;;;;;;;8.97;100.00;93981.22;5133916;27;20546;-78
2021/07/02 04:13:37;;;;;;;26.67;10.00;;;;;;;9.10;100.00;93967.53;5134349;27;20199;-77
2021/07/02 04:16:04;;;;;;;25.27;9.90;;;;;;;9.13;100.00;93968.97;5134227;27;20204;-78
2021/07/02 04:18:31;;;;;;;24.97;9.37;;;;;;;9.13;100.00;93975.00;5134347;27;20571;-79
2021/07/02 04:20:57;;;;;;;30.03;10.43;;;;;;;9.15;100.00;93967.00;5134456;27;20196;-79
2021/07/02 04:23:24;;;;;;;26.43;10.27;;;;;;;9.17;100.00;93978.81;5133513;27;20254;-78
2021/07/02 04:25:50;;;;;;;27.23;9.67;;;;;;;9.19;100.00;93976.84;5134127;27;20609;-78
2021/07/02 04:28:17;;;;;;;24.20;9.43;;;;;;;9.20;100.00;93975.84;5133835;27;20285;-78
2021/07/02 04:30:44;;;;;;;28.07;10.77;;;;;;;9.25;100.00;93977.91;5134034;27;20253;-78
2021/07/02 04:33:11;;;;;;;24.33;9.77;;;;;;;9.27;100.00;93981.13;5134026;27;20203;-78
2021/07/02 04:35:37;;;;;;;23.43;9.17;;;;;;;9.22;100.00;93989.47;5134118;27;20242;-77
2021/07/02 04:38:04;;;;;;;23.80;9.33;;;;;;;9.26;100.00;93980.31;5133959;27;20643;-78
2021/07/02 04:40:30;;;;;;;24.80;9.93;;;;;;;9.29;100.00;93993.97;5133853;27;20261;-78
2021/07/02 04:42:57;;;;;;;28.70;9.33;;;;;;;9.37;100.00;93993.84;5134010;27;20197;-77
2021/07/02 04:45:23;;;;;;;27.87;8.93;;;;;;;9.43;100.00;93998.31;5134036;27;20269;-79
2021/07/02 04:47:51;;;;;;;28.70;9.80;;;;;;;9.51;100.00;93995.56;5133901;28;20229;-78
2021/07/02 04:50:17;;;;;;;26.70;9.23;;;;;;;9.58;100.00;93999.03;5133936;28;20575;-78
2021/07/02 04:52:44;;;;;;;27.43;9.60;;;;;;;9.64;100.00;93997.44;5134014;28;20203;-79
2021/07/02 04:55:11;;;;;;;23.33;9.30;;;;;;;9.66;100.00;93999.88;5133878;28;20665;-78
2021/07/02 04:57:38;;;;;;;25.00;9.07;;;;;;;9.73;100.00;93995.53;5133734;28;20200;-78
2021/07/02 05:00:06;;;;;;;23.20;9.77;;;;;;;9.81;100.00;94003.22;5133986;28;20215;-78
2021/07/02 05:02:32;;;;;;;33.70;10.07;;;;;;;9.89;100.00;94002.25;5133794;28;20655;-78
2021/07/02 05:05:00;;;;;;;23.03;9.43;;;;;;;9.96;100.00;94006.53;5133807;28;20204;-78
2021/07/02 05:07:27;;;;;;;23.37;9.60;;;;;;;10.04;100.00;93999.53;5133739;28;20228;-79
2021/07/02 05:09:53;;;;;;;23.37;8.60;;;;;;;10.19;100.00;94000.22;5133661;28;20254;-78
2021/07/02 05:12:20;;;;;;;22.47;9.00;;;;;;;10.49;100.00;94005.22;5133747;28;20223;-78
2021/07/02 05:14:46;;;;;;;25.10;9.20;;;;;;;10.86;100.00;94003.16;5133719;28;20199;-78
2021/07/02 05:17:13;;;;;;;20.60;9.10;;;;;;;11.27;100.00;93997.00;5133803;28;20200;-79
2021/07/02 05:19:41;;;;;;;27.27;11.17;;;;;;;11.83;100.00;94003.69;5133695;28;20613;-78
2021/07/02 05:22:13;;;;;;;25.23;10.47;;;;;;;12.37;100.00;94012.28;5133601;28;20200;-77
2021/07/02 05:24:40;;;;;;;18.43;7.23;;;;;;;12.45;100.00;94012.06;5133494;28;20562;-79
2021/07/02 05:27:07;;;;;;;16.97;7.07;;;;;;;12.65;100.00;94013.81;5133423;28;20273;-78
2021/07/02 05:29:33;;;;;;;16.77;6.60;;;;;;;12.75;100.00;94003.69;5133677;28;20202;-79
2021/07/02 05:32:00;;;;;;;10.20;6.20;;;;;;;13.05;100.00;94003.97;5132401;28;20430;-79
2021/07/02 05:34:26;;;;;;;11.05;5.28;;;;;;;13.08;100.00;94006.16;5135340;27;20247;-79
2021/07/02 05:36:53;;;;;;;9.93;4.75;;;;;;;12.94;100.00;94010.69;5137373;27;20197;-78
2021/07/02 05:39:20;;;;;;;9.88;5.20;;;;;;;12.95;100.00;94016.72;5137116;27;20209;-79
2021/07/02 05:41:47;;;;;;;15.23;5.43;;;;;;;12.93;100.00;94013.50;5137403;27;20204;-79
2021/07/02 05:44:13;;;;;;;9.98;5.03;;;;;;;13.07;100.00;94007.19;5137351;27;20203;-79
2021/07/02 05:46:40;;;;;;;10.43;6.00;;;;;;;13.57;100.00;94011.72;5137206;27;20205;-79
2021/07/02 05:49:06;;;;;;;11.20;5.30;;;;;;;14.77;100.00;94010.66;5137211;27;20200;-77
2021/07/02 05:51:33;;;;;;;8.90;5.63;;;;;;;16.44;100.00;94015.31;5137076;27;20205;-78
2021/07/02 05:53:59;;;;;;;7.28;4.32;;;;;;;18.40;100.00;94009.88;5137274;27;20605;-78
2021/07/02 05:56:28;;;;;;;5.28;3.45;;;;;;;19.25;100.00;94019.38;5136937;27;20192;-80
2021/07/02 05:58:55;;;;;;;7.25;3.75;;;;;;;19.77;100.00;94024.19;5137050;27;20208;-79
2021/07/02 06:01:22;;;;;;;5.28;3.42;;;;;;;20.75;99.55;94016.94;5136941;27;20205;-79
2021/07/02 06:03:48;;;;;;;6.32;3.22;;;;;;;21.28;97.58;94020.31;5136475;27;20205;-80
2021/07/02 06:06:15;;;;;;;4.32;2.80;;;;;;;21.63;79.73;94026.81;5136767;27;20219;-79
2021/07/02 06:08:41;;;;;;;4.78;3.10;;;;;;;22.05;73.08;94033.78;5136675;27;20251;-79
2021/07/02 06:11:08;;;;;;;6.40;3.40;;;;;;;21.49;70.54;94033.72;5136684;27;20254;-79
2021/07/02 06:13:35;;;;;;;4.28;2.83;;;;;;;21.81;68.81;94034.28;5136751;27;20193;-79
2021/07/02 06:16:02;;;;;;;3.72;2.92;;;;;;;22.60;65.21;94035.91;5135901;27;20425;-79
2021/07/02 06:18:28;;;;;;;6.03;3.60;;;;;;;21.88;63.67;94033.25;5136673;27;20204;-77
2021/07/02 06:20:55;;;;;;;5.95;3.80;;;;;;;19.84;68.87;94035.38;5136621;27;20200;-78
2021/07/02 06:23:22;;;;;;;7.80;3.30;;;;;;;20.13;68.40;94037.72;5136822;27;20203;-78
2021/07/02 06:25:50;;;;;;;6.65;3.60;;;;;;;18.84;70.39;94035.59;5137016;27;20200;-79
2021/07/02 06:28:17;;;;;;;11.70;3.75;;;;;;;18.30;72.72;94033.50;5136264;27;20240;-79
2021/07/02 06:30:44;;;;;;;5.57;3.08;;;;;;;18.32;77.53;94028.78;5136401;27;20533;-78
2021/07/02 06:33:11;;;;;;;7.50;3.45;;;;;;;18.65;75.74;94035.03;5136171;27;20197;-77
2021/07/02 06:35:38;;;;;;;5.55;3.25;;;;;;;19.38;74.21;94035.72;5136316;27;20223;-78
2021/07/02 06:38:04;;;;;;;6.13;3.70;;;;;;;16.88;78.05;94039.44;5136402;27;20196;-79
2021/07/02 06:40:31;;;;;;;6.97;4.10;;;;;;;16.53;83.87;94042.09;5136359;27;20200;-78
2021/07/02 06:42:57;;;;;;;7.78;4.03;;;;;;;16.10;83.30;94046.66;5136127;27;20246;-77
2021/07/02 06:45:24;;;;;;;6.82;3.75;;;;;;;15.62;87.62;94042.31;5135411;27;20658;-77
2021/07/02 06:47:55;;;;;;;6.53;4.18;;;;;;;15.39;92.66;94041.22;5135832;27;20232;-80
2021/07/02 06:50:21;;;;;;;9.85;4.38;;;;;;;15.68;89.79;94041.44;5136167;27;20218;-79
2021/07/02 06:52:48;;;;;;;8.77;4.93;;;;;;;15.48;91.83;94041.72;5135830;27;20560;-79
2021/07/02 06:55:14;;;;;;;6.85;4.35;;;;;;;15.27;94.08;94050.88;5136014;27;20291;-80
2021/07/02 06:57:41;;;;;;;8.98;3.92;;;;;;;15.06;94.01;94050.34;5135878;27;20204;-78
2021/07/02 07:00:08;;;;;;;9.95;4.65;;;;;;;14.91;94.66;94049.94;5135681;27;20680;-76
2021/07/02 07:02:35;;;;;;;11.75;5.05;;;;;;;14.81;95.57;94042.56;5135629;27;20673;-77
2021/07/02 07:05:03;;;;;;;8.13;4.25;;;;;;;14.66;98.92;94050.81;5135780;27;20218;-80
2021/07/02 07:07:30;;;;;;;8.73;4.53;;;;;;;14.79;97.60;94045.41;5135505;27;20679;-78
2021/07/02 07:09:56;;;;;;;7.45;4.70;;;;;;;14.65;98.63;94053.66;5135793;27;20200;-81
2021/07/02 07:12:23;;;;;;;8.38;4.45;;;;;;;14.76;100.00;94055.56;5135520;27;20824;-78
2021/07/02 07:14:49;;;;;;;7.90;4.70;;;;;;;14.62;98.23;94057.50;5135486;27;20204;-79
2021/07/02 07:17:16;;;;;;;8.32;4.95;;;;;;;14.78;97.29;94059.56;5135404;27;20204;-79
2021/07/02 07:19:43;;;;;;;8.82;4.80;;;;;;;15.12;96.21;94057.38;5135717;27;20192;-78
2021/07/02 07:22:11;;;;;;;7.28;4.60;;;;;;;15.65;93.39;94055.03;5135599;27;20250;-78
2021/07/02 07:24:37;;;;;;;6.50;4.03;;;;;;;15.29;93.62;94062.81;5135340;27;20201;-78
2021/07/02 07:27:04;;;;;;;13.60;4.50;;;;;;;14.85;96.50;94063.94;5135106;27;20608;-77
2021/07/02 07:29:31;;;;;;;11.93;4.97;;;;;;;14.85;100.00;94061.31;5135071;27;20281;-78
2021/07/02 07:31:58;;;;;;;7.47;4.38;;;;;;;15.03;98.30;94065.78;5135053;27;20211;-78
2021/07/02 07:34:29;;;;;;;8.70;4.57;;;;;;;15.56;97.15;94059.03;5135229;27;20220;-79
2021/07/02 07:36:58;;;;;;;7.57;4.82;;;;;;;15.74;92.97;94066.84;5135341;27;20655;-77
2021/07/02 07:39:26;;;;;;;9.10;4.38;;;;;;;16.21;89.49;94066.16;5133732;27;20648;-81
2021/07/02 07:41:52;;;;;;;10.52;5.00;;;;;;;16.48;80.01;94068.34;5134819;27;20236;-81
2021/07/02 07:44:19;;;;;;;9.10;4.90;;;;;;;16.55;84.11;94064.56;5135386;27;20433;-79
2021/07/02 07:46:45;;;;;;;8.30;4.72;;;;;;;15.89;87.44;94071.72;5135059;27;20193;-81
2021/07/02 07:49:12;;;;;;;7.30;4.40;;;;;;;16.02;84.84;94073.34;5135265;27;20228;-78
2021/07/02 07:51:44;;;;;;;6.90;4.28;;;;;;;15.78;89.70;94067.25;5134832;27;20223;-79
2021/07/02 07:54:11;;;;;;;9.75;4.13;;;;;;;15.78;86.96;94069.88;5134436;27;20677;-78
2021/07/02 07:56:39;;;;;;;11.63;3.78;;;;;;;15.66;87.90;94073.22;5134004;27;20250;-79
2021/07/02 07:59:05;;;;;;;9.10;4.55;;;;;;;15.58;92.80;94068.28;5134112;27;20205;-81
2021/07/02 08:01:31;;;;;;;7.97;4.38;;;;;;;15.80;94.19;94062.53;5134512;27;20204;-79
2021/07/02 08:03:58;;;;;;;7.68;4.60;;;;;;;15.86;91.92;94069.56;5134348;27;20563;-78
2021/07/02 08:06:24;;;;;;;9.00;4.40;;;;;;;15.75;93.34;94065.03;5134234;27;20284;-78
2021/07/02 08:08:52;;;;;;;9.95;4.55;;;;;;;15.43;91.00;94070.53;5133282;27;20224;-78
2021/07/02 08:11:19;;;;;;;11.77;4.57;;;;;;;15.79;94.50;94068.84;5134240;27;20201;-76
2021/07/02 08:13:47;;;;;;;8.13;3.90;;;;;;;15.69;87.28;94072.78;5134221;27;20647;-76
2021/07/02 08:16:13;;;;;;;11.15;4.30;;;;;;;15.80;88.83;94081.75;5134354;27;20215;-76
2021/07/02 08:18:40;;;;;;;7.50;4.30;;;;;;;15.68;84.37;94078.28;5134430;27;20261;-79
2021/07/02 08:21:06;;;;;;;6.38;4.18;;;;;;;15.63;84.38;94083.41;5134164;27;20291;-76
2021/07/02 08:23:33;;;;;;;6.20;3.65;;;;;;;15.46;81.61;94076.13;5134256;27;20193;-76
2021/07/02 08:26:00;;;;;;;6.45;3.80;;;;;;;15.77;82.14;94076.97;5133976;27;20204;-77
2021/07/02 08:31:11;;;;;;;7.15;4.20;;;;;;;16.35;80.93;94083.34;5134027;27;20207;-78
2021/07/02 08:33:38;;;;;;;8.15;4.15;;;;;;;16.48;83.11;94084.97;5133533;27;20253;-77
2021/07/02 08:36:05;;;;;;;6.90;3.90;;;;;;;15.83;79.78;94091.84;5133985;27;20204;-76
2021/07/02 08:38:31;;;;;;;6.40;3.58;;;;;;;15.89;82.29;94090.97;5133788;27;20208;-76
2021/07/02 08:40:58;;;;;;;6.40;3.60;;;;;;;16.57;76.57;94088.88;5133089;27;20205;-79
2021/07/02 08:43:24;;;;;;;6.40;3.38;;;;;;;16.70;77.35;94087.81;5134063;27;20197;-77
2021/07/02 08:45:52;;;;;;;5.63;3.70;;;;;;;17.24;77.85;94089.50;5133840;27;20204;-77
2021/07/02 08:48:20;;;;;;;6.78;3.85;;;;;;;17.12;77.80;94092.13;5133807;28;20232;-76
2021/07/02 08:50:47;;;;;;;6.55;3.65;;;;;;;17.04;79.38;94084.59;5133216;28;20197;-77
2021/07/02 08:53:14;;;;;;;7.28;4.07;;;;;;;16.95;79.26;94095.53;5133950;28;20597;-78
2021/07/02 08:55:40;;;;;;;6.22;3.58;;;;;;;16.56;82.05;94105.72;5133844;28;20197;-75
2021/07/02 08:58:15;;;;;;;6.13;4.20;;;;;;;16.55;82.50;94098.03;5133910;28;20544;-77
2021/07/02 09:00:41;;;;;;;5.82;3.90;;;;;;;17.12;79.17;94094.78;5133741;28;20640;-77
2021/07/02 09:03:33;;;;;;;6.18;3.90;;;;;;;17.22;76.74;94096.81;5133031;28;20204;-77
2021/07/02 09:06:13;;;;;;;6.90;4.20;;;;;;;17.09;78.63;94097.91;5133906;28;20200;-77
2021/07/02 09:08:41;;;;;;;10.23;4.40;;;;;;;16.94;76.55;94101.81;5134396;27;20239;-77
2021/07/02 09:11:26;;;;;;;9.25;4.20;;;;;;;17.05;76.79;94086.19;5137842;27;20201;-76
2021/07/02 09:13:52;;;;;;;6.57;4.13;;;;;;;16.61;78.72;94082.09;5136811;27;20490;-77
2021/07/02 09:16:23;;;;;;;7.32;3.60;;;;;;;16.63;78.28;94093.19;5137833;27;20203;-79
2021/07/02 09:18:52;;;;;;;10.02;3.90;;;;;;;16.65;78.95;94101.72;5137820;27;20249;-77
2021/07/02 09:21:26;;;;;;;5.85;3.10;;;;;;;16.68;76.44;94094.38;5137703;27;20280;-78
2021/07/02 09:23:57;;;;;;;6.50;3.83;;;;;;;16.80;72.26;94089.88;5137616;27;20195;-76
2021/07/02 09:26:37;;;;;;;7.05;3.35;;;;;;;16.81;71.31;94088.84;5137454;27;20207;-78
2021/07/02 09:29:18;;;;;;;5.85;3.25;;;;;;;17.31;80.28;94084.88;5137384;27;20264;-77
2021/07/02 09:31:55;;;;;;;6.57;3.05;;;;;;;17.13;70.74;94088.47;5137392;27;20671;-77
2021/07/02 09:34:23;;;;;;;5.70;3.13;;;;;;;16.66;72.78;94097.22;5137382;27;20223;-76
2021/07/02 09:36:50;;;;;;;5.95;3.15;;;;;;;16.42;70.08;94085.88;5137248;27;20201;-77
2021/07/02 09:39:29;;;;;;;6.70;2.90;;;;;;;16.68;67.13;94083.81;5137348;27;20207;-78
2021/07/02 09:41:56;;;;;;;4.68;3.00;;;;;;;16.81;69.44;94094.13;5137201;27;20676;-76
2021/07/02 09:44:22;;;;;;;4.72;2.90;;;;;;;16.87;69.55;94084.50;5137186;27;20201;-77
2021/07/02 09:46:49;;;;;;;4.03;2.65;;;;;;;16.83;62.82;94105.22;5136919;27;20541;-76
2021/07/02 09:49:25;;;;;;;5.78;3.13;;;;;;;17.12;74.77;94097.41;5136922;27;20236;-77
2021/07/02 09:51:53;;;;;;;8.18;3.15;;;;;;;17.69;68.32;94091.41;5136889;27;20351;-77
2021/07/02 09:54:19;;;;;;;6.30;3.15;;;;;;;17.86;67.47;94097.50;5137154;27;20254;-77
2021/07/02 09:56:46;;;;;;;5.60;2.97;;;;;;;17.62;61.42;94112.66;5136922;27;20193;-77
2021/07/02 09:59:16;;;;;;;3.40;2.63;;;;;;;17.50;61.13;94104.78;5136413;27;20201;-77
2021/07/02 10:01:43;;;;;;;3.75;2.75;;;;;;;17.83;64.44;94097.97;5136809;27;20220;-77
2021/07/02 10:04:10;;;;;;;6.00;3.00;;;;;;;17.87;64.69;94109.72;5136995;27;20200;-78
2021/07/02 10:06:38;;;;;;;6.97;2.65;;;;;;;17.83;62.28;94103.25;5136901;27;20246;-76
2021/07/02 10:09:06;;;;;;;4.10;2.60;;;;;;;18.01;59.50;94099.63;5136679;27;20238;-77
2021/07/02 10:11:35;;;;;;;6.22;3.08;;;;;;;18.22;62.06;94110.53;5136816;27;20224;-76
2021/07/02 10:14:02;;;;;;;6.80;2.78;;;;;;;18.06;57.22;94102.38;5136630;27;20197;-76
2021/07/02 10:16:30;;;;;;;4.47;2.83;;;;;;;18.18;61.06;94099.66;5136642;27;20685;-76
2021/07/02 10:18:59;;;;;;;8.30;3.08;;;;;;;18.30;64.54;94087.19;5136501;27;20663;-77
2021/07/02 10:21:26;;;;;;;5.97;2.60;;;;;;;18.30;55.16;94086.34;5135109;27;20197;-76
2021/07/02 10:23:55;;;;;;;5.53;2.90;;;;;;;18.26;55.65;94093.97;5135711;27;20289;-76
2021/07/02 10:26:23;;;;;;;8.00;2.92;;;;;;;18.01;56.26;94094.34;5135725;27;20201;-76
2021/07/02 10:28:50;;;;;;;5.80;2.90;;;;;;;17.70;55.07;94111.47;5135745;27;20240;-80
2021/07/02 10:31:17;;;;;;;4.85;2.88;;;;;;;17.93;60.57;94081.53;5135931;27;20220;-79
2021/07/02 10:33:46;;;;;;;8.25;3.45;;;;;;;18.30;59.53;94094.28;5136165;27;20224;-78
2021/07/02 10:36:15;;;;;;;4.45;2.67;;;;;;;18.44;59.94;94086.84;5136238;27;20204;-78
2021/07/02 10:38:43;;;;;;;5.22;3.15;;;;;;;18.19;56.67;94095.19;5136068;27;20291;-79
2021/07/02 10:41:12;;;;;;;4.63;2.80;;;;;;;17.76;58.60;94097.31;5136073;27;20659;-77
2021/07/02 10:44:01;;;;;;;4.75;3.15;;;;;;;17.53;59.21;94106.16;5135958;27;20640;-79
2021/07/02 10:46:28;;;;;;;6.22;3.38;;;;;;;17.63;58.64;94113.47;5136003;27;20201;-78
2021/07/02 10:49:02;;;;;;;6.60;2.80;;;;;;;17.83;60.35;94094.53;5135868;27;20232;-77
2021/07/02 10:51:50;;;;;;;4.68;2.97;;;;;;;17.80;62.01;94098.44;5136086;27;20228;-80
2021/07/02 10:54:37;;;;;;;4.75;2.88;;;;;;;17.65;60.31;94096.34;5136052;27;20284;-77
2021/07/02 10:57:08;;;;;;;5.18;3.08;;;;;;;17.56;61.08;94103.03;5135908;27;20200;-80
2021/07/02 11:00:07;;;;;;;6.00;3.00;;;;;;;17.49;61.53;94102.38;5135719;27;20658;-80
2021/07/02 11:02:34;;;;;;;5.30;3.00;;;;;;;17.62;60.78;94090.72;5135900;27;20209;-77
2021/07/02 11:05:01;;;;;;;5.20;2.72;;;;;;;17.67;64.89;94090.81;5135711;27;20288;-79
2021/07/02 11:07:53;;;;;;;5.47;2.90;;;;;;;17.65;57.13;94096.34;5135717;27;20287;-77
2021/07/02 11:10:22;;;;;;;5.63;3.30;;;;;;;17.77;58.45;94093.66;5116001;27;20252;-78
2021/07/02 11:13:05;;;;;;;4.05;2.67;;;;;;;18.02;57.05;94089.88;5135376;27;20620;-78
2021/07/02 11:15:32;;;;;;;4.93;2.93;;;;;;;18.05;57.79;94082.28;5135195;27;20912;-78
2021/07/02 11:18:17;;;;;;;5.57;3.00;;;;;;;18.00;58.61;94087.50;5135539;27;20555;-77
2021/07/02 11:20:44;;;;;;;5.93;3.15;;;;;;;18.12;58.49;94090.06;5135366;27;20196;-79
2021/07/02 11:23:21;;;;;;;5.78;2.90;;;;;;;18.18;58.31;94075.88;5135304;27;20212;-78
2021/07/02 11:25:51;;;;;;;5.60;3.42;;;;;;;18.21;58.65;94085.16;5135343;27;20196;-77
2021/07/02 11:28:38;;;;;;;4.93;3.35;;;;;;;17.98;59.88;94089.53;5135176;27;20229;-79
2021/07/02 11:31:07;;;;;;;5.22;2.97;;;;;;;18.01;61.81;94089.06;5135089;27;20231;-80
2021/07/02 11:33:35;;;;;;;4.97;2.78;;;;;;;18.17;57.88;94097.25;5134758;27;20200;-79